CheckWX is a tool to help pilots better visualize weather data.  It is not intended as a substitute for an official pre-flight weather briefing.

23:23:28 UTC

KMAN METAR
Nampa Municipal Airport
Nampa, Idaho, USA
Current

8 mins ago

KMAN 162315Z AUTO 35007KT 10SM CLR 13/M01 A3031 RMK A01
Observed
Nov-16 @ 23:15 UTC
Wind
  • 350° at 7 KTS
Visibility
10 SM
Flight Rules
VFR
Cloud Levels
  • Clear skies
Temperature
13°C / 55°F
Dewpoint
-1°C / 30°F
Humidity
38%
Altimeter
30.31" Hg
Pressure
1026.42 hPa
Previous

28 mins ago

KMAN 162255Z AUTO 33007KT 10SM CLR 13/M00 A3031 RMK A01
Observed
Nov-16 @ 22:55 UTC
Wind
  • 330° at 7 KTS
Visibility
10 SM
Flight Rules
VFR
Cloud Levels
  • Clear skies
Temperature
13°C / 55°F
Dewpoint
C / 32°F
Humidity
41%
Altimeter
30.31" Hg
Pressure
1026.42 hPa
Previous

48 mins ago

KMAN 162235Z AUTO 31004KT 10SM CLR 13/M00 A3031 RMK A01
Observed
Nov-16 @ 22:35 UTC
Wind
  • 310° at 4 KTS
Visibility
10 SM
Flight Rules
VFR
Cloud Levels
  • Clear skies
Temperature
13°C / 55°F
Dewpoint
C / 32°F
Humidity
41%
Altimeter
30.31" Hg
Pressure
1026.42 hPa